sensor_id;sensor_type;location;lat;lon;timestamp;P1;durP1;ratioP1;P2;durP2;ratioP2
57249;SDS011;43102;52.014;-0.680;2023-08-30T00:00:00;7.60;;;4.60;;
57249;SDS011;43102;52.014;-0.680;2023-08-30T00:01:00;7.60;;;4.60;;
57249;SDS011;43102;52.014;-0.680;2023-08-30T00:02:00;7.60;;;4.60;;
57249;SDS011;43102;52.014;-0.680;2023-08-30T00:03:00;7.60;;;4.60;;
57249;SDS011;43102;52.014;-0.680;2023-08-30T00:04:00;7.60;;;4.60;;
57249;SDS011;43102;52.014;-0.680;2023-08-30T00:05:01;7.60;;;4.60;;
57249;SDS011;43102;52.014;-0.680;2023-08-30T00:06:04;7.60;;;4.60;;
57249;SDS011;43102;52.014;-0.680;2023-08-30T00:07:00;7.60;;;4.60;;
57249;SDS011;43102;52.014;-0.680;2023-08-30T00:08:00;7.60;;;4.60;;
57249;SDS011;43102;52.014;-0.680;2023-08-30T00:09:00;7.60;;;4.60;;
57249;SDS011;43102;52.014;-0.680;2023-08-30T00:10:01;7.60;;;4.60;;
57249;SDS011;43102;52.014;-0.680;2023-08-30T00:11:01;7.60;;;4.60;;
57249;SDS011;43102;52.014;-0.680;2023-08-30T00:12:00;7.60;;;4.60;;
57249;SDS011;43102;52.014;-0.680;2023-08-30T00:13:01;7.60;;;4.60;;
57249;SDS011;43102;52.014;-0.680;2023-08-30T00:14:06;7.60;;;4.60;;
57249;SDS011;43102;52.014;-0.680;2023-08-30T00:15:00;7.60;;;4.60;;
57249;SDS011;43102;52.014;-0.680;2023-08-30T00:16:02;7.60;;;4.60;;
57249;SDS011;43102;52.014;-0.680;2023-08-30T00:17:01;7.60;;;4.60;;
57249;SDS011;43102;52.014;-0.680;2023-08-30T00:18:00;7.60;;;4.60;;
57249;SDS011;43102;52.014;-0.680;2023-08-30T00:19:00;7.60;;;4.60;;
57249;SDS011;43102;52.014;-0.680;2023-08-30T00:20:00;7.60;;;4.60;;
57249;SDS011;43102;52.014;-0.680;2023-08-30T00:21:00;7.60;;;4.60;;
57249;SDS011;43102;52.014;-0.680;2023-08-30T00:22:00;7.60;;;4.60;;
57249;SDS011;43102;52.014;-0.680;2023-08-30T00:23:00;6.20;;;4.60;;
57249;SDS011;43102;52.014;-0.680;2023-08-30T00:24:00;6.20;;;4.60;;
57249;SDS011;43102;52.014;-0.680;2023-08-30T00:25:00;6.20;;;4.60;;
57249;SDS011;43102;52.014;-0.680;2023-08-30T00:26:00;6.20;;;4.60;;
57249;SDS011;43102;52.014;-0.680;2023-08-30T00:27:01;6.20;;;4.60;;
57249;SDS011;43102;52.014;-0.680;2023-08-30T00:28:00;6.20;;;4.60;;
57249;SDS011;43102;52.014;-0.680;2023-08-30T00:29:00;6.20;;;4.60;;
57249;SDS011;43102;52.014;-0.680;2023-08-30T00:30:00;6.20;;;4.60;;
57249;SDS011;43102;52.014;-0.680;2023-08-30T00:31:01;6.20;;;4.60;;
57249;SDS011;43102;52.014;-0.680;2023-08-30T00:32:00;6.20;;;4.60;;
57249;SDS011;43102;52.014;-0.680;2023-08-30T00:33:00;6.20;;;4.60;;
57249;SDS011;43102;52.014;-0.680;2023-08-30T00:34:00;6.20;;;4.60;;
57249;SDS011;43102;52.014;-0.680;2023-08-30T00:35:00;6.20;;;4.60;;
57249;SDS011;43102;52.014;-0.680;2023-08-30T00:36:00;6.20;;;4.60;;
57249;SDS011;43102;52.014;-0.680;2023-08-30T00:37:01;6.20;;;4.60;;
57249;SDS011;43102;52.014;-0.680;2023-08-30T00:38:00;6.20;;;4.60;;
57249;SDS011;43102;52.014;-0.680;2023-08-30T00:39:00;6.20;;;4.60;;
57249;SDS011;43102;52.014;-0.680;2023-08-30T00:40:01;6.20;;;4.60;;
57249;SDS011;43102;52.014;-0.680;2023-08-30T00:41:00;6.20;;;4.60;;
57249;SDS011;43102;52.014;-0.680;2023-08-30T00:42:04;6.20;;;4.60;;
57249;SDS011;43102;52.014;-0.680;2023-08-30T00:43:00;6.20;;;4.60;;
57249;SDS011;43102;52.014;-0.680;2023-08-30T00:44:00;6.20;;;4.60;;
57249;SDS011;43102;52.014;-0.680;2023-08-30T00:45:00;6.20;;;4.60;;
57249;SDS011;43102;52.014;-0.680;2023-08-30T00:46:00;6.20;;;4.60;;
57249;SDS011;43102;52.014;-0.680;2023-08-30T00:47:02;6.20;;;4.60;;
57249;SDS011;43102;52.014;-0.680;2023-08-30T00:48:00;6.20;;;4.60;;
57249;SDS011;43102;52.014;-0.680;2023-08-30T00:49:01;6.20;;;4.60;;
57249;SDS011;43102;52.014;-0.680;2023-08-30T00:50:01;6.20;;;4.60;;
57249;SDS011;43102;52.014;-0.680;2023-08-30T00:51:00;6.20;;;4.60;;
57249;SDS011;43102;52.014;-0.680;2023-08-30T00:52:02;6.20;;;4.60;;
57249;SDS011;43102;52.014;-0.680;2023-08-30T00:53:05;5.00;;;3.90;;
57249;SDS011;43102;52.014;-0.680;2023-08-30T00:54:00;5.00;;;3.90;;
57249;SDS011;43102;52.014;-0.680;2023-08-30T00:55:01;5.00;;;3.90;;
57249;SDS011;43102;52.014;-0.680;2023-08-30T00:56:01;5.00;;;3.90;;
57249;SDS011;43102;52.014;-0.680;2023-08-30T00:57:01;5.00;;;3.90;;
57249;SDS011;43102;52.014;-0.680;2023-08-30T00:58:02;5.00;;;3.90;;
57249;SDS011;43102;52.014;-0.680;2023-08-30T00:59:00;5.00;;;3.90;;
57249;SDS011;43102;52.014;-0.680;2023-08-30T01:00:03;5.00;;;3.90;;
57249;SDS011;43102;52.014;-0.680;2023-08-30T01:01:01;5.00;;;3.90;;
57249;SDS011;43102;52.014;-0.680;2023-08-30T01:02:01;5.00;;;3.90;;
57249;SDS011;43102;52.014;-0.680;2023-08-30T01:03:01;5.00;;;3.90;;
57249;SDS011;43102;52.014;-0.680;2023-08-30T01:04:00;5.00;;;3.90;;
57249;SDS011;43102;52.014;-0.680;2023-08-30T01:05:01;5.00;;;3.90;;
57249;SDS011;43102;52.014;-0.680;2023-08-30T01:06:01;5.00;;;3.90;;
57249;SDS011;43102;52.014;-0.680;2023-08-30T01:07:00;5.00;;;3.90;;
57249;SDS011;43102;52.014;-0.680;2023-08-30T01:08:01;5.00;;;3.90;;
57249;SDS011;43102;52.014;-0.680;2023-08-30T01:09:01;5.00;;;3.90;;
57249;SDS011;43102;52.014;-0.680;2023-08-30T01:10:00;5.00;;;3.90;;
57249;SDS011;43102;52.014;-0.680;2023-08-30T01:11:15;5.00;;;3.90;;
57249;SDS011;43102;52.014;-0.680;2023-08-30T01:12:10;5.00;;;3.90;;
57249;SDS011;43102;52.014;-0.680;2023-08-30T01:13:07;5.00;;;3.90;;
57249;SDS011;43102;52.014;-0.680;2023-08-30T01:14:06;5.00;;;3.90;;
57249;SDS011;43102;52.014;-0.680;2023-08-30T01:15:07;5.00;;;3.90;;
57249;SDS011;43102;52.014;-0.680;2023-08-30T01:16:00;5.00;;;3.90;;
57249;SDS011;43102;52.014;-0.680;2023-08-30T01:17:00;5.00;;;3.90;;
57249;SDS011;43102;52.014;-0.680;2023-08-30T01:18:01;5.00;;;3.90;;
57249;SDS011;43102;52.014;-0.680;2023-08-30T01:19:06;5.00;;;3.90;;
57249;SDS011;43102;52.014;-0.680;2023-08-30T01:20:08;5.00;;;3.90;;
57249;SDS011;43102;52.014;-0.680;2023-08-30T01:21:02;5.00;;;3.90;;
57249;SDS011;43102;52.014;-0.680;2023-08-30T01:22:21;6.80;;;4.10;;
57249;SDS011;43102;52.014;-0.680;2023-08-30T01:23:17;6.80;;;4.10;;
57249;SDS011;43102;52.014;-0.680;2023-08-30T01:24:02;6.80;;;4.10;;
57249;SDS011;43102;52.014;-0.680;2023-08-30T01:26:14;6.80;;;4.10;;
57249;SDS011;43102;52.014;-0.680;2023-08-30T01:27:09;6.80;;;4.10;;
57249;SDS011;43102;52.014;-0.680;2023-08-30T01:28:05;6.80;;;4.10;;
57249;SDS011;43102;52.014;-0.680;2023-08-30T01:29:01;6.80;;;4.10;;
57249;SDS011;43102;52.014;-0.680;2023-08-30T01:30:01;6.80;;;4.10;;
57249;SDS011;43102;52.014;-0.680;2023-08-30T01:31:00;6.80;;;4.10;;
57249;SDS011;43102;52.014;-0.680;2023-08-30T01:32:01;6.80;;;4.10;;
57249;SDS011;43102;52.014;-0.680;2023-08-30T01:33:02;6.80;;;4.10;;
57249;SDS011;43102;52.014;-0.680;2023-08-30T01:34:02;6.80;;;4.10;;
57249;SDS011;43102;52.014;-0.680;2023-08-30T01:35:02;6.80;;;4.10;;
57249;SDS011;43102;52.014;-0.680;2023-08-30T01:36:01;6.80;;;4.10;;
57249;SDS011;43102;52.014;-0.680;2023-08-30T01:37:02;6.80;;;4.10;;
57249;SDS011;43102;52.014;-0.680;2023-08-30T01:38:02;6.80;;;4.10;;
57249;SDS011;43102;52.014;-0.680;2023-08-30T01:39:01;6.80;;;4.10;;
57249;SDS011;43102;52.014;-0.680;2023-08-30T01:40:03;6.80;;;4.10;;
57249;SDS011;43102;52.014;-0.680;2023-08-30T01:41:01;6.80;;;4.10;;
57249;SDS011;43102;52.014;-0.680;2023-08-30T01:42:01;6.80;;;4.10;;
57249;SDS011;43102;52.014;-0.680;2023-08-30T01:43:01;6.80;;;4.10;;
57249;SDS011;43102;52.014;-0.680;2023-08-30T01:44:03;6.80;;;4.10;;
57249;SDS011;43102;52.014;-0.680;2023-08-30T01:45:01;6.80;;;4.10;;
57249;SDS011;43102;52.014;-0.680;2023-08-30T01:46:02;6.80;;;4.10;;
57249;SDS011;43102;52.014;-0.680;2023-08-30T01:47:01;6.80;;;4.10;;
57249;SDS011;43102;52.014;-0.680;2023-08-30T01:48:01;6.80;;;4.10;;
57249;SDS011;43102;52.014;-0.680;2023-08-30T01:49:02;6.80;;;4.10;;
57249;SDS011;43102;52.014;-0.680;2023-08-30T01:50:01;6.80;;;4.10;;
57249;SDS011;43102;52.014;-0.680;2023-08-30T01:51:00;6.80;;;4.10;;
57249;SDS011;43102;52.014;-0.680;2023-08-30T01:52:01;6.80;;;4.10;;
57249;SDS011;43102;52.014;-0.680;2023-08-30T01:53:02;6.30;;;4.00;;
57249;SDS011;43102;52.014;-0.680;2023-08-30T01:54:01;6.30;;;4.00;;
57249;SDS011;43102;52.014;-0.680;2023-08-30T01:55:02;6.30;;;4.00;;
57249;SDS011;43102;52.014;-0.680;2023-08-30T01:56:00;6.30;;;4.00;;
57249;SDS011;43102;52.014;-0.680;2023-08-30T01:57:00;6.30;;;4.00;;
57249;SDS011;43102;52.014;-0.680;2023-08-30T01:58:00;6.30;;;4.00;;
57249;SDS011;43102;52.014;-0.680;2023-08-30T01:59:00;6.30;;;4.00;;
57249;SDS011;43102;52.014;-0.680;2023-08-30T02:00:00;6.30;;;4.00;;
57249;SDS011;43102;52.014;-0.680;2023-08-30T02:01:00;6.30;;;4.00;;
57249;SDS011;43102;52.014;-0.680;2023-08-30T02:02:00;6.30;;;4.00;;
57249;SDS011;43102;52.014;-0.680;2023-08-30T02:03:07;6.30;;;4.00;;
57249;SDS011;43102;52.014;-0.680;2023-08-30T02:04:00;6.30;;;4.00;;
57249;SDS011;43102;52.014;-0.680;2023-08-30T02:05:01;6.30;;;4.00;;
57249;SDS011;43102;52.014;-0.680;2023-08-30T02:06:06;6.30;;;4.00;;
57249;SDS011;43102;52.014;-0.680;2023-08-30T02:07:03;6.30;;;4.00;;
57249;SDS011;43102;52.014;-0.680;2023-08-30T02:08:05;6.30;;;4.00;;
57249;SDS011;43102;52.014;-0.680;2023-08-30T02:09:03;6.30;;;4.00;;
57249;SDS011;43102;52.014;-0.680;2023-08-30T02:10:02;6.30;;;4.00;;
57249;SDS011;43102;52.014;-0.680;2023-08-30T02:11:04;6.30;;;4.00;;
57249;SDS011;43102;52.014;-0.680;2023-08-30T02:12:04;6.30;;;4.00;;
57249;SDS011;43102;52.014;-0.680;2023-08-30T02:13:02;6.30;;;4.00;;
57249;SDS011;43102;52.014;-0.680;2023-08-30T02:14:01;6.30;;;4.00;;
57249;SDS011;43102;52.014;-0.680;2023-08-30T02:15:02;6.30;;;4.00;;
57249;SDS011;43102;52.014;-0.680;2023-08-30T02:16:01;6.30;;;4.00;;
57249;SDS011;43102;52.014;-0.680;2023-08-30T02:17:01;6.30;;;4.00;;
57249;SDS011;43102;52.014;-0.680;2023-08-30T02:18:02;6.30;;;4.00;;
57249;SDS011;43102;52.014;-0.680;2023-08-30T02:19:01;6.30;;;4.00;;
57249;SDS011;43102;52.014;-0.680;2023-08-30T02:20:01;6.30;;;4.00;;
57249;SDS011;43102;52.014;-0.680;2023-08-30T02:21:01;6.30;;;4.00;;
57249;SDS011;43102;52.014;-0.680;2023-08-30T02:22:00;6.30;;;4.00;;
57249;SDS011;43102;52.014;-0.680;2023-08-30T02:23:11;5.50;;;4.10;;
57249;SDS011;43102;52.014;-0.680;2023-08-30T02:24:00;5.50;;;4.10;;
57249;SDS011;43102;52.014;-0.680;2023-08-30T02:25:04;5.50;;;4.10;;
57249;SDS011;43102;52.014;-0.680;2023-08-30T02:26:03;5.50;;;4.10;;
57249;SDS011;43102;52.014;-0.680;2023-08-30T02:27:00;5.50;;;4.10;;
57249;SDS011;43102;52.014;-0.680;2023-08-30T02:28:00;5.50;;;4.10;;
57249;SDS011;43102;52.014;-0.680;2023-08-30T02:29:00;5.50;;;4.10;;
57249;SDS011;43102;52.014;-0.680;2023-08-30T02:30:01;5.50;;;4.10;;
57249;SDS011;43102;52.014;-0.680;2023-08-30T02:31:00;5.50;;;4.10;;
57249;SDS011;43102;52.014;-0.680;2023-08-30T02:32:00;5.50;;;4.10;;
57249;SDS011;43102;52.014;-0.680;2023-08-30T02:33:00;5.50;;;4.10;;
57249;SDS011;43102;52.014;-0.680;2023-08-30T02:34:02;5.50;;;4.10;;
57249;SDS011;43102;52.014;-0.680;2023-08-30T02:35:02;5.50;;;4.10;;
57249;SDS011;43102;52.014;-0.680;2023-08-30T02:36:00;5.50;;;4.10;;
57249;SDS011;43102;52.014;-0.680;2023-08-30T02:37:00;5.50;;;4.10;;
57249;SDS011;43102;52.014;-0.680;2023-08-30T02:38:04;5.50;;;4.10;;
57249;SDS011;43102;52.014;-0.680;2023-08-30T02:39:00;5.50;;;4.10;;
57249;SDS011;43102;52.014;-0.680;2023-08-30T02:40:01;5.50;;;4.10;;
57249;SDS011;43102;52.014;-0.680;2023-08-30T02:41:00;5.50;;;4.10;;
57249;SDS011;43102;52.014;-0.680;2023-08-30T02:42:00;5.50;;;4.10;;
57249;SDS011;43102;52.014;-0.680;2023-08-30T02:43:00;5.50;;;4.10;;
57249;SDS011;43102;52.014;-0.680;2023-08-30T02:44:00;5.50;;;4.10;;
57249;SDS011;43102;52.014;-0.680;2023-08-30T02:45:00;5.50;;;4.10;;
57249;SDS011;43102;52.014;-0.680;2023-08-30T02:46:01;5.50;;;4.10;;
57249;SDS011;43102;52.014;-0.680;2023-08-30T02:47:00;5.50;;;4.10;;
57249;SDS011;43102;52.014;-0.680;2023-08-30T02:48:00;5.50;;;4.10;;
57249;SDS011;43102;52.014;-0.680;2023-08-30T02:49:00;5.50;;;4.10;;
57249;SDS011;43102;52.014;-0.680;2023-08-30T02:50:00;5.50;;;4.10;;
57249;SDS011;43102;52.014;-0.680;2023-08-30T02:51:00;5.50;;;4.10;;
57249;SDS011;43102;52.014;-0.680;2023-08-30T02:52:00;5.50;;;4.10;;
57249;SDS011;43102;52.014;-0.680;2023-08-30T02:53:00;4.90;;;3.80;;
57249;SDS011;43102;52.014;-0.680;2023-08-30T02:54:00;4.90;;;3.80;;
57249;SDS011;43102;52.014;-0.680;2023-08-30T02:55:00;4.90;;;3.80;;
57249;SDS011;43102;52.014;-0.680;2023-08-30T02:56:00;4.90;;;3.80;;
57249;SDS011;43102;52.014;-0.680;2023-08-30T02:57:00;4.90;;;3.80;;
57249;SDS011;43102;52.014;-0.680;2023-08-30T02:58:01;4.90;;;3.80;;
57249;SDS011;43102;52.014;-0.680;2023-08-30T02:59:00;4.90;;;3.80;;
57249;SDS011;43102;52.014;-0.680;2023-08-30T03:00:00;4.90;;;3.80;;
57249;SDS011;43102;52.014;-0.680;2023-08-30T03:01:02;4.90;;;3.80;;
57249;SDS011;43102;52.014;-0.680;2023-08-30T03:02:00;4.90;;;3.80;;
57249;SDS011;43102;52.014;-0.680;2023-08-30T03:03:00;4.90;;;3.80;;
57249;SDS011;43102;52.014;-0.680;2023-08-30T03:04:00;4.90;;;3.80;;
57249;SDS011;43102;52.014;-0.680;2023-08-30T03:05:00;4.90;;;3.80;;
57249;SDS011;43102;52.014;-0.680;2023-08-30T03:06:02;4.90;;;3.80;;
57249;SDS011;43102;52.014;-0.680;2023-08-30T03:07:00;4.90;;;3.80;;
57249;SDS011;43102;52.014;-0.680;2023-08-30T03:08:00;4.90;;;3.80;;
57249;SDS011;43102;52.014;-0.680;2023-08-30T03:09:01;4.90;;;3.80;;
57249;SDS011;43102;52.014;-0.680;2023-08-30T03:10:00;4.90;;;3.80;;
57249;SDS011;43102;52.014;-0.680;2023-08-30T03:11:09;4.90;;;3.80;;
57249;SDS011;43102;52.014;-0.680;2023-08-30T03:12:00;4.90;;;3.80;;
57249;SDS011;43102;52.014;-0.680;2023-08-30T03:13:00;4.90;;;3.80;;
57249;SDS011;43102;52.014;-0.680;2023-08-30T03:14:00;4.90;;;3.80;;
57249;SDS011;43102;52.014;-0.680;2023-08-30T03:15:00;4.90;;;3.80;;
57249;SDS011;43102;52.014;-0.680;2023-08-30T03:16:00;4.90;;;3.80;;
57249;SDS011;43102;52.014;-0.680;2023-08-30T03:17:00;4.90;;;3.80;;
57249;SDS011;43102;52.014;-0.680;2023-08-30T03:18:01;4.90;;;3.80;;
57249;SDS011;43102;52.014;-0.680;2023-08-30T03:19:01;4.90;;;3.80;;
57249;SDS011;43102;52.014;-0.680;2023-08-30T03:20:00;4.90;;;3.80;;
57249;SDS011;43102;52.014;-0.680;2023-08-30T03:21:02;4.90;;;3.80;;
57249;SDS011;43102;52.014;-0.680;2023-08-30T03:22:00;4.90;;;3.80;;
57249;SDS011;43102;52.014;-0.680;2023-08-30T03:23:00;5.00;;;3.50;;
57249;SDS011;43102;52.014;-0.680;2023-08-30T03:24:00;5.00;;;3.50;;
57249;SDS011;43102;52.014;-0.680;2023-08-30T03:25:03;5.00;;;3.50;;
57249;SDS011;43102;52.014;-0.680;2023-08-30T03:26:07;5.00;;;3.50;;
57249;SDS011;43102;52.014;-0.680;2023-08-30T03:27:00;5.00;;;3.50;;
57249;SDS011;43102;52.014;-0.680;2023-08-30T03:28:00;5.00;;;3.50;;
57249;SDS011;43102;52.014;-0.680;2023-08-30T03:29:00;5.00;;;3.50;;
57249;SDS011;43102;52.014;-0.680;2023-08-30T03:30:02;5.00;;;3.50;;
57249;SDS011;43102;52.014;-0.680;2023-08-30T03:31:00;5.00;;;3.50;;
57249;SDS011;43102;52.014;-0.680;2023-08-30T03:32:00;5.00;;;3.50;;
57249;SDS011;43102;52.014;-0.680;2023-08-30T03:33:00;5.00;;;3.50;;
57249;SDS011;43102;52.014;-0.680;2023-08-30T03:34:00;5.00;;;3.50;;
57249;SDS011;43102;52.014;-0.680;2023-08-30T03:35:00;5.00;;;3.50;;
57249;SDS011;43102;52.014;-0.680;2023-08-30T03:36:01;5.00;;;3.50;;
57249;SDS011;43102;52.014;-0.680;2023-08-30T03:37:00;5.00;;;3.50;;
57249;SDS011;43102;52.014;-0.680;2023-08-30T03:38:00;5.00;;;3.50;;
57249;SDS011;43102;52.014;-0.680;2023-08-30T03:39:00;5.00;;;3.50;;
57249;SDS011;43102;52.014;-0.680;2023-08-30T03:40:00;5.00;;;3.50;;
57249;SDS011;43102;52.014;-0.680;2023-08-30T03:41:01;5.00;;;3.50;;
57249;SDS011;43102;52.014;-0.680;2023-08-30T03:42:00;5.00;;;3.50;;
57249;SDS011;43102;52.014;-0.680;2023-08-30T03:43:00;5.00;;;3.50;;
57249;SDS011;43102;52.014;-0.680;2023-08-30T03:44:00;5.00;;;3.50;;
57249;SDS011;43102;52.014;-0.680;2023-08-30T03:45:00;5.00;;;3.50;;
57249;SDS011;43102;52.014;-0.680;2023-08-30T03:46:01;5.00;;;3.50;;
57249;SDS011;43102;52.014;-0.680;2023-08-30T03:47:00;5.00;;;3.50;;
57249;SDS011;43102;52.014;-0.680;2023-08-30T03:48:01;5.00;;;3.50;;
57249;SDS011;43102;52.014;-0.680;2023-08-30T03:49:00;5.00;;;3.50;;
57249;SDS011;43102;52.014;-0.680;2023-08-30T03:50:00;5.00;;;3.50;;
57249;SDS011;43102;52.014;-0.680;2023-08-30T03:51:00;5.00;;;3.50;;
57249;SDS011;43102;52.014;-0.680;2023-08-30T03:52:01;5.00;;;3.50;;
57249;SDS011;43102;52.014;-0.680;2023-08-30T03:53:00;6.30;;;3.40;;
57249;SDS011;43102;52.014;-0.680;2023-08-30T03:54:00;6.30;;;3.40;;
57249;SDS011;43102;52.014;-0.680;2023-08-30T03:55:01;6.30;;;3.40;;
57249;SDS011;43102;52.014;-0.680;2023-08-30T03:56:00;6.30;;;3.40;;
57249;SDS011;43102;52.014;-0.680;2023-08-30T03:57:00;6.30;;;3.40;;
57249;SDS011;43102;52.014;-0.680;2023-08-30T03:58:01;6.30;;;3.40;;
57249;SDS011;43102;52.014;-0.680;2023-08-30T03:59:00;6.30;;;3.40;;
57249;SDS011;43102;52.014;-0.680;2023-08-30T04:00:00;6.30;;;3.40;;
57249;SDS011;43102;52.014;-0.680;2023-08-30T04:01:00;6.30;;;3.40;;
57249;SDS011;43102;52.014;-0.680;2023-08-30T04:02:00;6.30;;;3.40;;
57249;SDS011;43102;52.014;-0.680;2023-08-30T04:03:00;6.30;;;3.40;;
57249;SDS011;43102;52.014;-0.680;2023-08-30T04:04:00;6.30;;;3.40;;
57249;SDS011;43102;52.014;-0.680;2023-08-30T04:05:00;6.30;;;3.40;;
57249;SDS011;43102;52.014;-0.680;2023-08-30T04:06:00;6.30;;;3.40;;
57249;SDS011;43102;52.014;-0.680;2023-08-30T04:07:00;6.30;;;3.40;;
57249;SDS011;43102;52.014;-0.680;2023-08-30T04:08:03;6.30;;;3.40;;
57249;SDS011;43102;52.014;-0.680;2023-08-30T04:09:00;6.30;;;3.40;;
57249;SDS011;43102;52.014;-0.680;2023-08-30T04:10:02;6.30;;;3.40;;
57249;SDS011;43102;52.014;-0.680;2023-08-30T04:11:01;6.30;;;3.40;;
57249;SDS011;43102;52.014;-0.680;2023-08-30T04:12:00;6.30;;;3.40;;
57249;SDS011;43102;52.014;-0.680;2023-08-30T04:13:01;6.30;;;3.40;;
57249;SDS011;43102;52.014;-0.680;2023-08-30T04:14:00;6.30;;;3.40;;
57249;SDS011;43102;52.014;-0.680;2023-08-30T04:15:02;6.30;;;3.40;;
57249;SDS011;43102;52.014;-0.680;2023-08-30T04:16:00;6.30;;;3.40;;
57249;SDS011;43102;52.014;-0.680;2023-08-30T04:17:00;6.30;;;3.40;;
57249;SDS011;43102;52.014;-0.680;2023-08-30T04:18:01;6.30;;;3.40;;
57249;SDS011;43102;52.014;-0.680;2023-08-30T04:19:00;6.30;;;3.40;;
57249;SDS011;43102;52.014;-0.680;2023-08-30T04:20:04;6.30;;;3.40;;
57249;SDS011;43102;52.014;-0.680;2023-08-30T04:21:02;6.30;;;3.40;;
57249;SDS011;43102;52.014;-0.680;2023-08-30T04:22:00;6.30;;;3.40;;
57249;SDS011;43102;52.014;-0.680;2023-08-30T04:23:02;6.60;;;3.50;;
57249;SDS011;43102;52.014;-0.680;2023-08-30T04:24:00;6.60;;;3.50;;
57249;SDS011;43102;52.014;-0.680;2023-08-30T04:25:00;6.60;;;3.50;;
57249;SDS011;43102;52.014;-0.680;2023-08-30T04:26:00;6.60;;;3.50;;
57249;SDS011;43102;52.014;-0.680;2023-08-30T04:27:00;6.60;;;3.50;;
57249;SDS011;43102;52.014;-0.680;2023-08-30T04:28:00;6.60;;;3.50;;
57249;SDS011;43102;52.014;-0.680;2023-08-30T04:29:03;6.60;;;3.50;;
57249;SDS011;43102;52.014;-0.680;2023-08-30T04:30:00;6.60;;;3.50;;
57249;SDS011;43102;52.014;-0.680;2023-08-30T04:31:00;6.60;;;3.50;;
57249;SDS011;43102;52.014;-0.680;2023-08-30T04:32:00;6.60;;;3.50;;
57249;SDS011;43102;52.014;-0.680;2023-08-30T04:33:02;6.60;;;3.50;;
57249;SDS011;43102;52.014;-0.680;2023-08-30T04:34:00;6.60;;;3.50;;
57249;SDS011;43102;52.014;-0.680;2023-08-30T04:35:00;6.60;;;3.50;;
57249;SDS011;43102;52.014;-0.680;2023-08-30T04:36:00;6.60;;;3.50;;
57249;SDS011;43102;52.014;-0.680;2023-08-30T04:37:00;6.60;;;3.50;;
57249;SDS011;43102;52.014;-0.680;2023-08-30T04:38:01;6.60;;;3.50;;
57249;SDS011;43102;52.014;-0.680;2023-08-30T04:39:03;6.60;;;3.50;;
57249;SDS011;43102;52.014;-0.680;2023-08-30T04:40:00;6.60;;;3.50;;
57249;SDS011;43102;52.014;-0.680;2023-08-30T04:41:01;6.60;;;3.50;;
57249;SDS011;43102;52.014;-0.680;2023-08-30T04:42:02;6.60;;;3.50;;
57249;SDS011;43102;52.014;-0.680;2023-08-30T04:43:00;6.60;;;3.50;;
57249;SDS011;43102;52.014;-0.680;2023-08-30T04:44:00;6.60;;;3.50;;
57249;SDS011;43102;52.014;-0.680;2023-08-30T04:45:01;6.60;;;3.50;;
57249;SDS011;43102;52.014;-0.680;2023-08-30T04:46:00;6.60;;;3.50;;
57249;SDS011;43102;52.014;-0.680;2023-08-30T04:47:00;6.60;;;3.50;;
57249;SDS011;43102;52.014;-0.680;2023-08-30T04:48:00;6.60;;;3.50;;
57249;SDS011;43102;52.014;-0.680;2023-08-30T04:49:01;6.60;;;3.50;;
57249;SDS011;43102;52.014;-0.680;2023-08-30T04:50:00;6.60;;;3.50;;
57249;SDS011;43102;52.014;-0.680;2023-08-30T04:51:03;6.60;;;3.50;;
57249;SDS011;43102;52.014;-0.680;2023-08-30T04:52:01;6.60;;;3.50;;
57249;SDS011;43102;52.014;-0.680;2023-08-30T04:53:00;7.20;;;3.80;;
57249;SDS011;43102;52.014;-0.680;2023-08-30T04:54:00;7.20;;;3.80;;
57249;SDS011;43102;52.014;-0.680;2023-08-30T04:55:00;7.20;;;3.80;;
57249;SDS011;43102;52.014;-0.680;2023-08-30T04:56:00;7.20;;;3.80;;
57249;SDS011;43102;52.014;-0.680;2023-08-30T04:57:00;7.20;;;3.80;;
57249;SDS011;43102;52.014;-0.680;2023-08-30T04:58:00;7.20;;;3.80;;
57249;SDS011;43102;52.014;-0.680;2023-08-30T04:59:03;7.20;;;3.80;;
57249;SDS011;43102;52.014;-0.680;2023-08-30T05:00:04;7.20;;;3.80;;
57249;SDS011;43102;52.014;-0.680;2023-08-30T05:01:00;7.20;;;3.80;;
57249;SDS011;43102;52.014;-0.680;2023-08-30T05:02:00;7.20;;;3.80;;
57249;SDS011;43102;52.014;-0.680;2023-08-30T05:03:00;7.20;;;3.80;;
57249;SDS011;43102;52.014;-0.680;2023-08-30T05:04:00;7.20;;;3.80;;
57249;SDS011;43102;52.014;-0.680;2023-08-30T05:05:00;7.20;;;3.80;;
57249;SDS011;43102;52.014;-0.680;2023-08-30T05:06:00;7.20;;;3.80;;
57249;SDS011;43102;52.014;-0.680;2023-08-30T05:07:00;7.20;;;3.80;;
57249;SDS011;43102;52.014;-0.680;2023-08-30T05:08:00;7.20;;;3.80;;
57249;SDS011;43102;52.014;-0.680;2023-08-30T05:09:00;7.20;;;3.80;;
57249;SDS011;43102;52.014;-0.680;2023-08-30T05:10:00;7.20;;;3.80;;
57249;SDS011;43102;52.014;-0.680;2023-08-30T05:11:00;7.20;;;3.80;;
57249;SDS011;43102;52.014;-0.680;2023-08-30T05:12:00;7.20;;;3.80;;
57249;SDS011;43102;52.014;-0.680;2023-08-30T05:13:00;7.20;;;3.80;;
57249;SDS011;43102;52.014;-0.680;2023-08-30T05:14:00;7.20;;;3.80;;
57249;SDS011;43102;52.014;-0.680;2023-08-30T05:15:00;7.20;;;3.80;;
57249;SDS011;43102;52.014;-0.680;2023-08-30T05:16:00;7.20;;;3.80;;
57249;SDS011;43102;52.014;-0.680;2023-08-30T05:17:00;7.20;;;3.80;;
57249;SDS011;43102;52.014;-0.680;2023-08-30T05:18:00;7.20;;;3.80;;
57249;SDS011;43102;52.014;-0.680;2023-08-30T05:19:00;7.20;;;3.80;;
57249;SDS011;43102;52.014;-0.680;2023-08-30T05:20:00;7.20;;;3.80;;
57249;SDS011;43102;52.014;-0.680;2023-08-30T05:21:03;7.20;;;3.80;;
57249;SDS011;43102;52.014;-0.680;2023-08-30T05:22:00;7.20;;;3.80;;
57249;SDS011;43102;52.014;-0.680;2023-08-30T05:23:00;5.90;;;3.60;;
57249;SDS011;43102;52.014;-0.680;2023-08-30T05:24:00;5.90;;;3.60;;
57249;SDS011;43102;52.014;-0.680;2023-08-30T05:25:01;5.90;;;3.60;;
57249;SDS011;43102;52.014;-0.680;2023-08-30T05:26:00;5.90;;;3.60;;
57249;SDS011;43102;52.014;-0.680;2023-08-30T05:27:02;5.90;;;3.60;;
57249;SDS011;43102;52.014;-0.680;2023-08-30T05:28:00;5.90;;;3.60;;
57249;SDS011;43102;52.014;-0.680;2023-08-30T05:29:00;5.90;;;3.60;;
57249;SDS011;43102;52.014;-0.680;2023-08-30T05:30:00;5.90;;;3.60;;
57249;SDS011;43102;52.014;-0.680;2023-08-30T05:31:00;5.90;;;3.60;;
57249;SDS011;43102;52.014;-0.680;2023-08-30T05:32:00;5.90;;;3.60;;
57249;SDS011;43102;52.014;-0.680;2023-08-30T05:33:01;5.90;;;3.60;;
57249;SDS011;43102;52.014;-0.680;2023-08-30T05:34:00;5.90;;;3.60;;
57249;SDS011;43102;52.014;-0.680;2023-08-30T05:35:00;5.90;;;3.60;;
57249;SDS011;43102;52.014;-0.680;2023-08-30T05:36:00;5.90;;;3.60;;
57249;SDS011;43102;52.014;-0.680;2023-08-30T05:37:00;5.90;;;3.60;;
57249;SDS011;43102;52.014;-0.680;2023-08-30T05:38:00;5.90;;;3.60;;
57249;SDS011;43102;52.014;-0.680;2023-08-30T05:39:00;5.90;;;3.60;;
57249;SDS011;43102;52.014;-0.680;2023-08-30T05:40:00;5.90;;;3.60;;
57249;SDS011;43102;52.014;-0.680;2023-08-30T05:41:00;5.90;;;3.60;;
57249;SDS011;43102;52.014;-0.680;2023-08-30T05:42:01;5.90;;;3.60;;
57249;SDS011;43102;52.014;-0.680;2023-08-30T05:43:00;5.90;;;3.60;;
57249;SDS011;43102;52.014;-0.680;2023-08-30T05:44:00;5.90;;;3.60;;
57249;SDS011;43102;52.014;-0.680;2023-08-30T05:45:00;5.90;;;3.60;;
57249;SDS011;43102;52.014;-0.680;2023-08-30T05:46:02;5.90;;;3.60;;
57249;SDS011;43102;52.014;-0.680;2023-08-30T05:47:00;5.90;;;3.60;;
57249;SDS011;43102;52.014;-0.680;2023-08-30T05:48:00;5.90;;;3.60;;
57249;SDS011;43102;52.014;-0.680;2023-08-30T05:49:02;5.90;;;3.60;;
57249;SDS011;43102;52.014;-0.680;2023-08-30T05:50:00;5.90;;;3.60;;
57249;SDS011;43102;52.014;-0.680;2023-08-30T05:51:00;5.90;;;3.60;;
57249;SDS011;43102;52.014;-0.680;2023-08-30T05:52:00;5.90;;;3.60;;
57249;SDS011;43102;52.014;-0.680;2023-08-30T05:53:01;6.60;;;3.70;;
57249;SDS011;43102;52.014;-0.680;2023-08-30T05:54:00;6.60;;;3.70;;
57249;SDS011;43102;52.014;-0.680;2023-08-30T05:55:00;6.60;;;3.70;;
57249;SDS011;43102;52.014;-0.680;2023-08-30T05:56:00;6.60;;;3.70;;